sensor_id;sensor_type;location;lat;lon;timestamp;temperature;humidity
11264;DHT22;5689;48.798;9.070;2022-07-17T00:01:07;17.10;89.20
11264;DHT22;5689;48.798;9.070;2022-07-17T00:03:35;17.20;88.90
11264;DHT22;5689;48.798;9.070;2022-07-17T00:06:03;17.10;89.60
11264;DHT22;5689;48.798;9.070;2022-07-17T00:08:31;17.10;89.30
11264;DHT22;5689;48.798;9.070;2022-07-17T00:10:59;16.90;90.00
11264;DHT22;5689;48.798;9.070;2022-07-17T00:13:28;17.00;90.10
11264;DHT22;5689;48.798;9.070;2022-07-17T00:15:57;16.80;90.30
11264;DHT22;5689;48.798;9.070;2022-07-17T00:18:25;16.80;90.50
11264;DHT22;5689;48.798;9.070;2022-07-17T00:20:54;16.80;90.80
11264;DHT22;5689;48.798;9.070;2022-07-17T00:23:22;16.70;90.90
11264;DHT22;5689;48.798;9.070;2022-07-17T00:25:50;16.80;91.00
11264;DHT22;5689;48.798;9.070;2022-07-17T00:28:18;16.70;91.10
11264;DHT22;5689;48.798;9.070;2022-07-17T00:30:46;16.70;91.30
11264;DHT22;5689;48.798;9.070;2022-07-17T00:33:15;16.50;91.80
11264;DHT22;5689;48.798;9.070;2022-07-17T00:35:43;16.50;92.10
11264;DHT22;5689;48.798;9.070;2022-07-17T00:38:11;16.50;92.30
11264;DHT22;5689;48.798;9.070;2022-07-17T00:40:40;16.50;92.40
11264;DHT22;5689;48.798;9.070;2022-07-17T00:43:09;16.40;92.50
11264;DHT22;5689;48.798;9.070;2022-07-17T00:45:37;16.30;92.80
11264;DHT22;5689;48.798;9.070;2022-07-17T00:48:07;16.30;92.90
11264;DHT22;5689;48.798;9.070;2022-07-17T00:50:40;16.40;92.90
11264;DHT22;5689;48.798;9.070;2022-07-17T00:53:09;16.30;92.70
11264;DHT22;5689;48.798;9.070;2022-07-17T00:55:39;16.30;93.00
11264;DHT22;5689;48.798;9.070;2022-07-17T00:58:10;16.20;93.30
11264;DHT22;5689;48.798;9.070;2022-07-17T01:00:38;16.10;93.50
11264;DHT22;5689;48.798;9.070;2022-07-17T01:03:08;16.00;93.90
11264;DHT22;5689;48.798;9.070;2022-07-17T01:05:38;16.10;93.80
11264;DHT22;5689;48.798;9.070;2022-07-17T01:08:06;16.20;93.60
11264;DHT22;5689;48.798;9.070;2022-07-17T01:10:35;16.10;93.80
11264;DHT22;5689;48.798;9.070;2022-07-17T01:13:03;16.10;94.00
11264;DHT22;5689;48.798;9.070;2022-07-17T01:15:31;16.00;94.40
11264;DHT22;5689;48.798;9.070;2022-07-17T01:17:59;15.90;94.60
11264;DHT22;5689;48.798;9.070;2022-07-17T01:20:31;15.90;95.30
11264;DHT22;5689;48.798;9.070;2022-07-17T01:23:00;15.80;95.70
11264;DHT22;5689;48.798;9.070;2022-07-17T01:25:29;15.90;95.80
11264;DHT22;5689;48.798;9.070;2022-07-17T01:27:57;15.80;96.10
11264;DHT22;5689;48.798;9.070;2022-07-17T01:30:25;15.70;96.20
11264;DHT22;5689;48.798;9.070;2022-07-17T01:32:54;15.50;96.70
11264;DHT22;5689;48.798;9.070;2022-07-17T01:35:22;15.50;97.10
11264;DHT22;5689;48.798;9.070;2022-07-17T01:37:50;15.30;97.70
11264;DHT22;5689;48.798;9.070;2022-07-17T01:40:19;15.10;98.60
11264;DHT22;5689;48.798;9.070;2022-07-17T01:42:48;15.00;99.00
11264;DHT22;5689;48.798;9.070;2022-07-17T01:45:18;15.00;99.40
11264;DHT22;5689;48.798;9.070;2022-07-17T01:47:46;15.00;99.90
11264;DHT22;5689;48.798;9.070;2022-07-17T01:50:15;15.10;99.90
11264;DHT22;5689;48.798;9.070;2022-07-17T01:52:44;14.90;99.90
11264;DHT22;5689;48.798;9.070;2022-07-17T01:55:14;14.90;99.90
11264;DHT22;5689;48.798;9.070;2022-07-17T01:57:44;14.90;99.90
11264;DHT22;5689;48.798;9.070;2022-07-17T02:00:15;14.90;99.90
11264;DHT22;5689;48.798;9.070;2022-07-17T02:02:44;14.90;99.90
11264;DHT22;5689;48.798;9.070;2022-07-17T02:05:12;15.00;99.90
11264;DHT22;5689;48.798;9.070;2022-07-17T02:07:40;15.00;99.90
11264;DHT22;5689;48.798;9.070;2022-07-17T02:10:10;14.90;99.90
11264;DHT22;5689;48.798;9.070;2022-07-17T02:12:42;14.90;99.90
11264;DHT22;5689;48.798;9.070;2022-07-17T02:15:11;14.90;99.90
11264;DHT22;5689;48.798;9.070;2022-07-17T02:17:40;14.80;99.90
11264;DHT22;5689;48.798;9.070;2022-07-17T02:20:10;14.80;99.90
11264;DHT22;5689;48.798;9.070;2022-07-17T02:22:39;14.80;99.90
11264;DHT22;5689;48.798;9.070;2022-07-17T02:25:09;14.80;99.90
11264;DHT22;5689;48.798;9.070;2022-07-17T02:27:37;14.90;99.90
11264;DHT22;5689;48.798;9.070;2022-07-17T02:30:09;14.90;99.90
11264;DHT22;5689;48.798;9.070;2022-07-17T02:32:37;14.80;99.90
11264;DHT22;5689;48.798;9.070;2022-07-17T02:35:07;14.80;99.90
11264;DHT22;5689;48.798;9.070;2022-07-17T02:37:36;14.80;99.90
11264;DHT22;5689;48.798;9.070;2022-07-17T02:40:06;14.80;99.90
11264;DHT22;5689;48.798;9.070;2022-07-17T02:42:34;14.70;99.90
11264;DHT22;5689;48.798;9.070;2022-07-17T02:45:02;14.60;99.90
11264;DHT22;5689;48.798;9.070;2022-07-17T02:47:33;14.70;99.90
11264;DHT22;5689;48.798;9.070;2022-07-17T02:50:04;14.80;99.90
11264;DHT22;5689;48.798;9.070;2022-07-17T02:52:33;14.70;99.90
11264;DHT22;5689;48.798;9.070;2022-07-17T02:55:01;14.60;99.90
11264;DHT22;5689;48.798;9.070;2022-07-17T02:57:29;14.50;99.90
11264;DHT22;5689;48.798;9.070;2022-07-17T02:59:57;14.40;99.90
11264;DHT22;5689;48.798;9.070;2022-07-17T03:02:26;14.40;99.90
11264;DHT22;5689;48.798;9.070;2022-07-17T03:04:55;14.50;99.90
11264;DHT22;5689;48.798;9.070;2022-07-17T03:07:23;14.50;99.90
11264;DHT22;5689;48.798;9.070;2022-07-17T03:09:51;14.50;99.90
11264;DHT22;5689;48.798;9.070;2022-07-17T03:12:19;14.40;99.90
11264;DHT22;5689;48.798;9.070;2022-07-17T03:14:47;14.50;99.90
11264;DHT22;5689;48.798;9.070;2022-07-17T03:17:15;14.50;99.90
11264;DHT22;5689;48.798;9.070;2022-07-17T03:19:43;14.40;99.90
11264;DHT22;5689;48.798;9.070;2022-07-17T03:22:12;14.40;99.90
11264;DHT22;5689;48.798;9.070;2022-07-17T03:24:40;14.20;99.90
11264;DHT22;5689;48.798;9.070;2022-07-17T03:27:08;14.10;99.90
11264;DHT22;5689;48.798;9.070;2022-07-17T03:29:36;14.00;99.90
11264;DHT22;5689;48.798;9.070;2022-07-17T03:32:05;14.00;99.90
11264;DHT22;5689;48.798;9.070;2022-07-17T03:34:33;14.00;99.90
11264;DHT22;5689;48.798;9.070;2022-07-17T03:37:01;14.00;99.90
11264;DHT22;5689;48.798;9.070;2022-07-17T03:39:31;13.90;99.90
11264;DHT22;5689;48.798;9.070;2022-07-17T03:41:59;13.90;99.90
11264;DHT22;5689;48.798;9.070;2022-07-17T03:44:27;13.80;99.90
11264;DHT22;5689;48.798;9.070;2022-07-17T03:46:55;14.00;99.90
11264;DHT22;5689;48.798;9.070;2022-07-17T03:49:24;13.90;99.90
11264;DHT22;5689;48.798;9.070;2022-07-17T03:51:52;13.90;99.90
11264;DHT22;5689;48.798;9.070;2022-07-17T03:54:20;13.90;99.90
11264;DHT22;5689;48.798;9.070;2022-07-17T03:56:49;14.00;99.90
11264;DHT22;5689;48.798;9.070;2022-07-17T03:59:17;13.90;99.90
11264;DHT22;5689;48.798;9.070;2022-07-17T04:01:45;13.90;99.90
11264;DHT22;5689;48.798;9.070;2022-07-17T04:04:13;13.90;99.90
11264;DHT22;5689;48.798;9.070;2022-07-17T04:06:41;13.90;99.90
11264;DHT22;5689;48.798;9.070;2022-07-17T04:09:09;13.90;99.90
11264;DHT22;5689;48.798;9.070;2022-07-17T04:11:37;13.90;99.90
11264;DHT22;5689;48.798;9.070;2022-07-17T04:14:06;13.90;99.90
11264;DHT22;5689;48.798;9.070;2022-07-17T04:16:34;13.80;99.90
11264;DHT22;5689;48.798;9.070;2022-07-17T04:19:02;13.80;99.90
11264;DHT22;5689;48.798;9.070;2022-07-17T04:21:31;14.00;99.90
11264;DHT22;5689;48.798;9.070;2022-07-17T04:23:59;13.90;99.90
11264;DHT22;5689;48.798;9.070;2022-07-17T04:26:27;14.20;99.90
11264;DHT22;5689;48.798;9.070;2022-07-17T04:28:55;14.30;99.90
11264;DHT22;5689;48.798;9.070;2022-07-17T04:31:24;14.30;99.90
11264;DHT22;5689;48.798;9.070;2022-07-17T04:33:52;14.30;99.90
11264;DHT22;5689;48.798;9.070;2022-07-17T04:36:21;14.30;99.90
11264;DHT22;5689;48.798;9.070;2022-07-17T04:38:48;14.20;99.90
11264;DHT22;5689;48.798;9.070;2022-07-17T04:41:17;14.30;99.90
11264;DHT22;5689;48.798;9.070;2022-07-17T04:43:45;14.40;99.90
11264;DHT22;5689;48.798;9.070;2022-07-17T04:46:13;14.50;99.90
11264;DHT22;5689;48.798;9.070;2022-07-17T04:48:42;14.60;99.90
11264;DHT22;5689;48.798;9.070;2022-07-17T04:51:13;14.60;99.90
11264;DHT22;5689;48.798;9.070;2022-07-17T04:53:42;14.70;99.90
11264;DHT22;5689;48.798;9.070;2022-07-17T04:56:10;14.80;99.90
11264;DHT22;5689;48.798;9.070;2022-07-17T04:58:38;14.80;99.90
11264;DHT22;5689;48.798;9.070;2022-07-17T05:01:06;14.90;99.90
11264;DHT22;5689;48.798;9.070;2022-07-17T05:03:34;14.90;99.90
11264;DHT22;5689;48.798;9.070;2022-07-17T05:06:05;15.00;99.90
11264;DHT22;5689;48.798;9.070;2022-07-17T05:08:34;15.10;99.90
11264;DHT22;5689;48.798;9.070;2022-07-17T05:11:02;15.10;99.90
11264;DHT22;5689;48.798;9.070;2022-07-17T05:13:30;15.40;99.90
11264;DHT22;5689;48.798;9.070;2022-07-17T05:15:58;15.50;99.90
11264;DHT22;5689;48.798;9.070;2022-07-17T05:18:26;15.70;99.90
11264;DHT22;5689;48.798;9.070;2022-07-17T05:20:54;16.00;99.90
11264;DHT22;5689;48.798;9.070;2022-07-17T05:23:23;16.30;99.90
11264;DHT22;5689;48.798;9.070;2022-07-17T05:25:51;16.70;99.90
11264;DHT22;5689;48.798;9.070;2022-07-17T05:28:19;17.10;99.90
11264;DHT22;5689;48.798;9.070;2022-07-17T05:30:47;17.70;99.90
11264;DHT22;5689;48.798;9.070;2022-07-17T05:33:15;18.60;98.30
11264;DHT22;5689;48.798;9.070;2022-07-17T05:35:43;18.80;96.70
11264;DHT22;5689;48.798;9.070;2022-07-17T05:38:11;18.70;96.50
11264;DHT22;5689;48.798;9.070;2022-07-17T05:40:41;19.10;95.80
11264;DHT22;5689;48.798;9.070;2022-07-17T05:43:09;19.50;94.90
11264;DHT22;5689;48.798;9.070;2022-07-17T05:45:38;19.50;94.10
11264;DHT22;5689;48.798;9.070;2022-07-17T05:48:06;19.30;94.70
11264;DHT22;5689;48.798;9.070;2022-07-17T05:50:34;18.90;95.20
11264;DHT22;5689;48.798;9.070;2022-07-17T05:53:02;18.90;95.70
11264;DHT22;5689;48.798;9.070;2022-07-17T05:55:30;19.30;94.90
11264;DHT22;5689;48.798;9.070;2022-07-17T05:58:00;19.70;93.90
11264;DHT22;5689;48.798;9.070;2022-07-17T06:00:28;19.80;93.80
11264;DHT22;5689;48.798;9.070;2022-07-17T06:02:56;19.80;93.90
11264;DHT22;5689;48.798;9.070;2022-07-17T06:05:24;20.20;93.20
11264;DHT22;5689;48.798;9.070;2022-07-17T06:07:54;20.40;93.10
11264;DHT22;5689;48.798;9.070;2022-07-17T06:10:22;20.50;92.60
11264;DHT22;5689;48.798;9.070;2022-07-17T06:12:51;20.50;91.70
11264;DHT22;5689;48.798;9.070;2022-07-17T06:15:22;20.60;91.60
11264;DHT22;5689;48.798;9.070;2022-07-17T06:17:51;20.60;91.30
11264;DHT22;5689;48.798;9.070;2022-07-17T06:20:19;20.60;91.00
11264;DHT22;5689;48.798;9.070;2022-07-17T06:22:47;21.20;90.30
11264;DHT22;5689;48.798;9.070;2022-07-17T06:25:15;21.30;88.80
11264;DHT22;5689;48.798;9.070;2022-07-17T06:27:43;20.70;89.60
11264;DHT22;5689;48.798;9.070;2022-07-17T06:30:13;21.30;88.50
11264;DHT22;5689;48.798;9.070;2022-07-17T06:32:43;21.30;86.40
11264;DHT22;5689;48.798;9.070;2022-07-17T06:35:10;21.40;86.70
11264;DHT22;5689;48.798;9.070;2022-07-17T06:37:39;21.80;86.80
11264;DHT22;5689;48.798;9.070;2022-07-17T06:40:07;22.40;84.20
11264;DHT22;5689;48.798;9.070;2022-07-17T06:42:35;22.80;83.30
11264;DHT22;5689;48.798;9.070;2022-07-17T06:45:04;22.90;83.10
11264;DHT22;5689;48.798;9.070;2022-07-17T06:47:32;23.20;82.30
11264;DHT22;5689;48.798;9.070;2022-07-17T06:50:01;23.70;79.80
11264;DHT22;5689;48.798;9.070;2022-07-17T06:52:29;23.70;80.00
11264;DHT22;5689;48.798;9.070;2022-07-17T06:54:57;23.80;77.80
11264;DHT22;5689;48.798;9.070;2022-07-17T06:57:25;24.10;78.50
11264;DHT22;5689;48.798;9.070;2022-07-17T06:59:53;23.80;78.00
11264;DHT22;5689;48.798;9.070;2022-07-17T07:02:21;24.00;77.10
11264;DHT22;5689;48.798;9.070;2022-07-17T07:04:49;24.80;74.90
11264;DHT22;5689;48.798;9.070;2022-07-17T07:07:19;25.20;74.60
11264;DHT22;5689;48.798;9.070;2022-07-17T07:09:47;25.90;72.80
11264;DHT22;5689;48.798;9.070;2022-07-17T07:12:15;25.40;72.20
11264;DHT22;5689;48.798;9.070;2022-07-17T07:14:43;25.20;73.00
11264;DHT22;5689;48.798;9.070;2022-07-17T07:17:11;24.70;73.20
11264;DHT22;5689;48.798;9.070;2022-07-17T07:19:39;25.20;72.90
11264;DHT22;5689;48.798;9.070;2022-07-17T07:22:07;25.70;71.80
11264;DHT22;5689;48.798;9.070;2022-07-17T07:24:36;25.70;70.80
11264;DHT22;5689;48.798;9.070;2022-07-17T07:27:04;26.20;69.70
11264;DHT22;5689;48.798;9.070;2022-07-17T07:29:32;25.30;70.70
11264;DHT22;5689;48.798;9.070;2022-07-17T07:32:00;24.60;72.00
11264;DHT22;5689;48.798;9.070;2022-07-17T07:34:29;25.20;71.60
11264;DHT22;5689;48.798;9.070;2022-07-17T07:36:57;25.10;70.50
11264;DHT22;5689;48.798;9.070;2022-07-17T07:39:25;26.10;69.20
11264;DHT22;5689;48.798;9.070;2022-07-17T07:41:54;26.60;67.60
11264;DHT22;5689;48.798;9.070;2022-07-17T07:44:22;26.20;67.70
11264;DHT22;5689;48.798;9.070;2022-07-17T07:46:54;27.60;63.50
11264;DHT22;5689;48.798;9.070;2022-07-17T07:49:22;28.00;63.50
11264;DHT22;5689;48.798;9.070;2022-07-17T07:51:50;26.60;66.00
11264;DHT22;5689;48.798;9.070;2022-07-17T07:54:34;27.00;65.30
11264;DHT22;5689;48.798;9.070;2022-07-17T07:57:04;27.10;65.20
11264;DHT22;5689;48.798;9.070;2022-07-17T07:59:32;28.30;61.80
11264;DHT22;5689;48.798;9.070;2022-07-17T08:02:00;29.40;59.90
11264;DHT22;5689;48.798;9.070;2022-07-17T08:04:29;29.60;58.70
11264;DHT22;5689;48.798;9.070;2022-07-17T08:06:57;28.70;60.80
11264;DHT22;5689;48.798;9.070;2022-07-17T08:09:25;29.70;57.20
11264;DHT22;5689;48.798;9.070;2022-07-17T08:11:53;29.80;57.10
11264;DHT22;5689;48.798;9.070;2022-07-17T08:14:22;30.30;56.60
11264;DHT22;5689;48.798;9.070;2022-07-17T08:16:50;31.00;54.80
11264;DHT22;5689;48.798;9.070;2022-07-17T08:19:19;29.90;55.00
11264;DHT22;5689;48.798;9.070;2022-07-17T08:21:47;30.30;54.60
11264;DHT22;5689;48.798;9.070;2022-07-17T08:24:15;30.10;53.90
11264;DHT22;5689;48.798;9.070;2022-07-17T08:26:43;30.20;54.80
11264;DHT22;5689;48.798;9.070;2022-07-17T08:29:11;30.50;54.40
11264;DHT22;5689;48.798;9.070;2022-07-17T08:31:41;30.20;55.10
11264;DHT22;5689;48.798;9.070;2022-07-17T08:34:09;30.00;54.30
11264;DHT22;5689;48.798;9.070;2022-07-17T08:36:38;30.80;55.10
11264;DHT22;5689;48.798;9.070;2022-07-17T08:39:06;31.00;53.70
11264;DHT22;5689;48.798;9.070;2022-07-17T08:41:36;31.30;52.60
11264;DHT22;5689;48.798;9.070;2022-07-17T08:44:05;30.50;53.30
11264;DHT22;5689;48.798;9.070;2022-07-17T08:46:36;30.50;52.70
11264;DHT22;5689;48.798;9.070;2022-07-17T08:49:06;30.40;54.60
11264;DHT22;5689;48.798;9.070;2022-07-17T08:51:35;28.60;57.10
11264;DHT22;5689;48.798;9.070;2022-07-17T08:54:05;28.20;57.30
11264;DHT22;5689;48.798;9.070;2022-07-17T08:56:33;30.50;54.40
11264;DHT22;5689;48.798;9.070;2022-07-17T08:59:01;30.30;53.30
11264;DHT22;5689;48.798;9.070;2022-07-17T09:01:29;30.90;53.10
11264;DHT22;5689;48.798;9.070;2022-07-17T09:04:00;32.20;51.40
11264;DHT22;5689;48.798;9.070;2022-07-17T09:06:34;33.00;50.70
11264;DHT22;5689;48.798;9.070;2022-07-17T09:09:05;31.60;52.40
11264;DHT22;5689;48.798;9.070;2022-07-17T09:11:51;32.00;49.70
11264;DHT22;5689;48.798;9.070;2022-07-17T09:14:21;31.30;50.60
11264;DHT22;5689;48.798;9.070;2022-07-17T09:16:54;32.40;51.00
11264;DHT22;5689;48.798;9.070;2022-07-17T09:19:27;31.90;51.10
11264;DHT22;5689;48.798;9.070;2022-07-17T09:22:09;32.10;51.70
11264;DHT22;5689;48.798;9.070;2022-07-17T09:24:43;30.80;50.50
11264;DHT22;5689;48.798;9.070;2022-07-17T09:27:13;31.20;50.10
11264;DHT22;5689;48.798;9.070;2022-07-17T09:29:52;31.40;49.40
11264;DHT22;5689;48.798;9.070;2022-07-17T09:32:22;32.10;49.80
11264;DHT22;5689;48.798;9.070;2022-07-17T09:34:53;30.90;49.10
11264;DHT22;5689;48.798;9.070;2022-07-17T09:37:23;31.60;49.20
11264;DHT22;5689;48.798;9.070;2022-07-17T09:39:51;33.20;48.20
11264;DHT22;5689;48.798;9.070;2022-07-17T09:42:25;34.80;46.40
11264;DHT22;5689;48.798;9.070;2022-07-17T09:45:01;33.20;47.30
11264;DHT22;5689;48.798;9.070;2022-07-17T09:47:30;33.50;46.60
11264;DHT22;5689;48.798;9.070;2022-07-17T09:49:59;32.10;47.80
11264;DHT22;5689;48.798;9.070;2022-07-17T09:52:31;31.70;48.60
11264;DHT22;5689;48.798;9.070;2022-07-17T09:55:01;33.50;46.10
11264;DHT22;5689;48.798;9.070;2022-07-17T09:57:42;34.70;44.40
11264;DHT22;5689;48.798;9.070;2022-07-17T10:00:11;33.70;45.50
11264;DHT22;5689;48.798;9.070;2022-07-17T10:02:42;32.00;47.90
11264;DHT22;5689;48.798;9.070;2022-07-17T10:05:12;33.70;45.50
11264;DHT22;5689;48.798;9.070;2022-07-17T10:07:43;33.50;45.90
11264;DHT22;5689;48.798;9.070;2022-07-17T10:10:13;32.40;47.00
11264;DHT22;5689;48.798;9.070;2022-07-17T10:12:43;31.30;47.00
11264;DHT22;5689;48.798;9.070;2022-07-17T10:15:12;31.60;46.40
11264;DHT22;5689;48.798;9.070;2022-07-17T10:17:40;31.90;47.10
11264;DHT22;5689;48.798;9.070;2022-07-17T10:20:12;33.70;43.30
11264;DHT22;5689;48.798;9.070;2022-07-17T10:22:43;31.90;45.20
11264;DHT22;5689;48.798;9.070;2022-07-17T10:25:13;31.40;46.30
11264;DHT22;5689;48.798;9.070;2022-07-17T10:27:52;32.00;46.40
11264;DHT22;5689;48.798;9.070;2022-07-17T10:30:26;33.30;44.80
11264;DHT22;5689;48.798;9.070;2022-07-17T10:32:56;34.50;43.70
11264;DHT22;5689;48.798;9.070;2022-07-17T10:35:25;34.10;41.90
11264;DHT22;5689;48.798;9.070;2022-07-17T10:38:09;34.60;41.50
11264;DHT22;5689;48.798;9.070;2022-07-17T10:40:37;33.60;41.40
11264;DHT22;5689;48.798;9.070;2022-07-17T10:43:06;33.30;42.70
11264;DHT22;5689;48.798;9.070;2022-07-17T10:45:37;36.50;40.30
11264;DHT22;5689;48.798;9.070;2022-07-17T10:48:07;34.70;40.10
11264;DHT22;5689;48.798;9.070;2022-07-17T10:50:38;34.00;41.00
11264;DHT22;5689;48.798;9.070;2022-07-17T10:53:11;32.00;41.50
11264;DHT22;5689;48.798;9.070;2022-07-17T10:55:43;33.90;40.00
11264;DHT22;5689;48.798;9.070;2022-07-17T10:58:20;34.70;39.20
11264;DHT22;5689;48.798;9.070;2022-07-17T11:01:00;36.90;36.90
11264;DHT22;5689;48.798;9.070;2022-07-17T11:03:29;37.50;35.90
11264;DHT22;5689;48.798;9.070;2022-07-17T11:06:10;37.50;36.40
11264;DHT22;5689;48.798;9.070;2022-07-17T11:08:45;36.90;37.70
11264;DHT22;5689;48.798;9.070;2022-07-17T11:11:14;36.20;37.80
11264;DHT22;5689;48.798;9.070;2022-07-17T11:13:46;38.00;37.00
11264;DHT22;5689;48.798;9.070;2022-07-17T11:16:24;34.80;39.40
11264;DHT22;5689;48.798;9.070;2022-07-17T11:18:52;37.10;38.80
11264;DHT22;5689;48.798;9.070;2022-07-17T11:21:21;37.90;37.50
11264;DHT22;5689;48.798;9.070;2022-07-17T11:23:52;37.20;38.20
11264;DHT22;5689;48.798;9.070;2022-07-17T11:26:21;36.70;39.00
11264;DHT22;5689;48.798;9.070;2022-07-17T11:28:50;38.90;36.50
11264;DHT22;5689;48.798;9.070;2022-07-17T11:31:23;37.40;36.50
11264;DHT22;5689;48.798;9.070;2022-07-17T11:33:53;38.10;36.00
11264;DHT22;5689;48.798;9.070;2022-07-17T11:36:25;38.90;35.20
11264;DHT22;5689;48.798;9.070;2022-07-17T11:38:56;37.50;37.10
11264;DHT22;5689;48.798;9.070;2022-07-17T11:41:32;36.30;36.70
11264;DHT22;5689;48.798;9.070;2022-07-17T11:44:01;36.00;35.30
11264;DHT22;5689;48.798;9.070;2022-07-17T11:46:30;36.80;36.00
11264;DHT22;5689;48.798;9.070;2022-07-17T11:49:00;38.20;35.20
11264;DHT22;5689;48.798;9.070;2022-07-17T11:51:36;38.00;36.10
11264;DHT22;5689;48.798;9.070;2022-07-17T11:54:08;37.30;36.50
11264;DHT22;5689;48.798;9.070;2022-07-17T11:56:36;38.10;35.30
11264;DHT22;5689;48.798;9.070;2022-07-17T11:59:05;38.10;35.00
11264;DHT22;5689;48.798;9.070;2022-07-17T12:01:41;36.90;36.80
11264;DHT22;5689;48.798;9.070;2022-07-17T12:04:11;36.80;35.60
11264;DHT22;5689;48.798;9.070;2022-07-17T12:06:41;38.50;33.80
11264;DHT22;5689;48.798;9.070;2022-07-17T12:09:11;41.30;33.50
11264;DHT22;5689;48.798;9.070;2022-07-17T12:11:46;39.20;33.20
11264;DHT22;5689;48.798;9.070;2022-07-17T12:14:15;40.10;32.70
11264;DHT22;5689;48.798;9.070;2022-07-17T12:16:43;41.00;33.30
11264;DHT22;5689;48.798;9.070;2022-07-17T12:19:14;41.80;32.40
11264;DHT22;5689;48.798;9.070;2022-07-17T12:21:51;40.20;33.00
11264;DHT22;5689;48.798;9.070;2022-07-17T12:24:24;38.80;34.00
11264;DHT22;5689;48.798;9.070;2022-07-17T12:26:54;38.00;34.00
11264;DHT22;5689;48.798;9.070;2022-07-17T12:29:23;38.80;33.80
11264;DHT22;5689;48.798;9.070;2022-07-17T12:32:06;37.20;33.50
11264;DHT22;5689;48.798;9.070;2022-07-17T12:34:35;38.60;33.20
11264;DHT22;5689;48.798;9.070;2022-07-17T12:37:03;38.50;33.20
11264;DHT22;5689;48.798;9.070;2022-07-17T12:39:32;40.60;32.10
11264;DHT22;5689;48.798;9.070;2022-07-17T12:42:02;40.40;32.40
11264;DHT22;5689;48.798;9.070;2022-07-17T12:44:30;37.90;34.40
11264;DHT22;5689;48.798;9.070;2022-07-17T12:46:58;37.10;35.00
11264;DHT22;5689;48.798;9.070;2022-07-17T12:49:26;38.80;34.80
11264;DHT22;5689;48.798;9.070;2022-07-17T12:51:54;40.20;32.90
11264;DHT22;5689;48.798;9.070;2022-07-17T12:54:22;41.90;32.40
11264;DHT22;5689;48.798;9.070;2022-07-17T12:56:52;39.50;34.30
11264;DHT22;5689;48.798;9.070;2022-07-17T12:59:20;40.20;32.50
11264;DHT22;5689;48.798;9.070;2022-07-17T13:01:48;40.60;33.10
11264;DHT22;5689;48.798;9.070;2022-07-17T13:04:16;37.90;34.60
11264;DHT22;5689;48.798;9.070;2022-07-17T13:06:44;36.70;35.50
11264;DHT22;5689;48.798;9.070;2022-07-17T13:09:12;36.70;35.60
11264;DHT22;5689;48.798;9.070;2022-07-17T13:11:40;36.00;35.90
11264;DHT22;5689;48.798;9.070;2022-07-17T13:14:10;38.00;35.50
11264;DHT22;5689;48.798;9.070;2022-07-17T13:16:39;37.70;36.00
11264;DHT22;5689;48.798;9.070;2022-07-17T13:19:07;36.00;37.40
11264;DHT22;5689;48.798;9.070;2022-07-17T13:21:35;36.80;35.80
11264;DHT22;5689;48.798;9.070;2022-07-17T13:24:04;36.60;35.70
11264;DHT22;5689;48.798;9.070;2022-07-17T13:26:33;36.50;36.20
11264;DHT22;5689;48.798;9.070;2022-07-17T13:29:01;36.50;36.80
11264;DHT22;5689;48.798;9.070;2022-07-17T13:31:31;37.00;36.60
11264;DHT22;5689;48.798;9.070;2022-07-17T13:33:59;37.00;36.00
11264;DHT22;5689;48.798;9.070;2022-07-17T13:36:27;36.30;37.20
11264;DHT22;5689;48.798;9.070;2022-07-17T13:38:55;37.70;35.40
11264;DHT22;5689;48.798;9.070;2022-07-17T13:41:23;37.10;36.30
11264;DHT22;5689;48.798;9.070;2022-07-17T13:43:51;38.40;35.30
11264;DHT22;5689;48.798;9.070;2022-07-17T13:46:21;37.30;36.60
11264;DHT22;5689;48.798;9.070;2022-07-17T13:48:51;36.60;37.40
11264;DHT22;5689;48.798;9.070;2022-07-17T13:51:19;36.70;36.40
11264;DHT22;5689;48.798;9.070;2022-07-17T13:53:47;38.60;35.90
11264;DHT22;5689;48.798;9.070;2022-07-17T13:56:15;39.50;33.80
11264;DHT22;5689;48.798;9.070;2022-07-17T13:58:44;37.30;36.70
11264;DHT22;5689;48.798;9.070;2022-07-17T14:01:12;37.50;36.50
11264;DHT22;5689;48.798;9.070;2022-07-17T14:03:44;38.60;34.70
11264;DHT22;5689;48.798;9.070;2022-07-17T14:06:13;38.70;34.50
11264;DHT22;5689;48.798;9.070;2022-07-17T14:08:41;40.00;34.20
11264;DHT22;5689;48.798;9.070;2022-07-17T14:11:10;40.20;33.40
11264;DHT22;5689;48.798;9.070;2022-07-17T14:13:39;39.70;33.00
11264;DHT22;5689;48.798;9.070;2022-07-17T14:16:09;39.90;33.20
11264;DHT22;5689;48.798;9.070;2022-07-17T14:18:37;39.50;32.70
11264;DHT22;5689;48.798;9.070;2022-07-17T14:21:26;38.90;33.60
11264;DHT22;5689;48.798;9.070;2022-07-17T14:23:54;42.10;32.50
11264;DHT22;5689;48.798;9.070;2022-07-17T14:26:22;39.90;32.50
11264;DHT22;5689;48.798;9.070;2022-07-17T14:28:51;39.50;33.30
11264;DHT22;5689;48.798;9.070;2022-07-17T14:31:19;38.40;33.70
11264;DHT22;5689;48.798;9.070;2022-07-17T14:33:47;39.00;33.70
11264;DHT22;5689;48.798;9.070;2022-07-17T14:36:15;38.20;34.30
11264;DHT22;5689;48.798;9.070;2022-07-17T14:38:44;35.70;35.80
11264;DHT22;5689;48.798;9.070;2022-07-17T14:41:13;35.50;37.60
11264;DHT22;5689;48.798;9.070;2022-07-17T14:43:41;36.40;36.50
11264;DHT22;5689;48.798;9.070;2022-07-17T14:46:09;34.80;38.60
11264;DHT22;5689;48.798;9.070;2022-07-17T14:48:37;35.60;37.30
11264;DHT22;5689;48.798;9.070;2022-07-17T14:51:06;35.80;36.60
11264;DHT22;5689;48.798;9.070;2022-07-17T14:53:34;36.40;35.50
11264;DHT22;5689;48.798;9.070;2022-07-17T14:56:03;35.20;37.80
11264;DHT22;5689;48.798;9.070;2022-07-17T14:58:31;35.40;37.80
11264;DHT22;5689;48.798;9.070;2022-07-17T15:01:00;37.40;35.90
11264;DHT22;5689;48.798;9.070;2022-07-17T15:03:30;37.00;35.90
11264;DHT22;5689;48.798;9.070;2022-07-17T15:05:58;37.50;36.20
11264;DHT22;5689;48.798;9.070;2022-07-17T15:08:26;36.00;37.20
11264;DHT22;5689;48.798;9.070;2022-07-17T15:10:54;36.60;37.30
11264;DHT22;5689;48.798;9.070;2022-07-17T15:13:23;35.10;37.70
11264;DHT22;5689;48.798;9.070;2022-07-17T15:15:51;34.10;38.00
11264;DHT22;5689;48.798;9.070;2022-07-17T15:18:20;33.50;38.80
11264;DHT22;5689;48.798;9.070;2022-07-17T15:20:48;32.30;39.70
11264;DHT22;5689;48.798;9.070;2022-07-17T15:23:16;32.10;40.20
11264;DHT22;5689;48.798;9.070;2022-07-17T15:25:44;31.00;41.70
11264;DHT22;5689;48.798;9.070;2022-07-17T15:28:12;30.80;41.70
11264;DHT22;5689;48.798;9.070;2022-07-17T15:30:41;31.10;41.70
11264;DHT22;5689;48.798;9.070;2022-07-17T15:33:09;31.70;40.80
11264;DHT22;5689;48.798;9.070;2022-07-17T15:35:37;31.00;41.50
11264;DHT22;5689;48.798;9.070;2022-07-17T15:38:05;30.90;41.30
11264;DHT22;5689;48.798;9.070;2022-07-17T15:40:33;31.50;41.10
11264;DHT22;5689;48.798;9.070;2022-07-17T15:43:01;31.70;40.70
11264;DHT22;5689;48.798;9.070;2022-07-17T15:45:29;31.10;41.40
11264;DHT22;5689;48.798;9.070;2022-07-17T15:47:59;31.10;41.90
11264;DHT22;5689;48.798;9.070;2022-07-17T15:50:27;31.90;41.20
11264;DHT22;5689;48.798;9.070;2022-07-17T15:52:55;32.80;39.70
11264;DHT22;5689;48.798;9.070;2022-07-17T15:55:23;32.70;39.50
11264;DHT22;5689;48.798;9.070;2022-07-17T15:57:50;33.30;39.10